aviador You're here:

GCLA Decoded Metar

LA PALMA in SPAIN
Report Time2018-06-25 06:00:00
UTC Time2018-06-25 06:22:42
Flight Rules vfr VFR
Wind310° at 06 kt
W.Decomp.*RWY 01: 3.6 kt HW 4.8 kt LCW
W.Rank310° ranks 9
Current wind is below 310° avg. (6.9)
Visibility9999 m
Phenomena:N/A
Clouds:Few 027 Hf
Expected CloudBase > 2,400 ft AGL from Temp-Dew spread
CeilingNone
Temp20°C (ISA +5)
Dew Point14°C (69% RH)
AAT19.1°C
QNH1018 hPa
Density Alt755 ft
Elevation102 ft
Report Wrong Elevation
Raw Report
GCLA 250600Z 31006KT 9999 FEW027 20/14 Q1018=

Extra information for GCLA:More info

Metar Taf Metar & Taf Last 4 Metars F.Rules Stats Wind Profile Meteogram Temp Stats Airport Information Weather charts Add Link Nearby VenuesMetar ALERT Operation Metar Decoded Social comments